Terrell, TX

9:28 AM CST on February 14, 2016 (GMT -0600)
APRSWXNET | | Change Station
CLOSE
Current Station
Personal Weather Station
Location: Terrell, TX
Elevation: 505 ft
Nearby Weather Stations

Elev 505 ft 32.80 °N, 96.30 °W | Updated 19 minutes ago

Overcast
Overcast
58 °F
Feels Like 58 °F
N
7
Wind Variable Wind from SSW
Gusts 17.0 mph

Today
High -- | Low -- °F
--% Chance of Precip.
Yesterday
High -- | Low -- °F
Precip. -- in
Pressure 29.99 in
Visibility 10.0 miles
Clouds Overcast 1700 ft
Dew Point 54 °F
Humidity 87%
Rainfall in
Snow Depth Not available.
7:09 AM 6:09 PM
Waxing Crescent, 42% visible
METAR KTRL 141453Z AUTO 19012KT 10SM OVC017 14/12 A3000 RMK AO2 SLP154 T01440122 58001
Pressure 29.99 in
Visibility 10.0 miles
Clouds Overcast 1700 ft
Dew Point 54 °F
Humidity 87%
Rainfall in
Snow Depth Not available.
7:09 AM 6:09 PM
Waxing Crescent, 42% visible
METAR KTRL 141453Z AUTO 19012KT 10SM OVC017 14/12 A3000 RMK AO2 SLP154 T01440122 58001

10-Day Weather Forecast

Almanac

Astronomy

Feb. 14, 2016 Rise Set
Actual Time
Civil Twilight
Nautical Twilight
Astronomical Twilight
Moon
Length of Visible Light
Length of Day
Tomorrow will be .
, % of the Moon is Illuminated

Today's Extremes

State Highs State Lows

Community

WunderPhotos

Upload Photos

1,892,791 photos uploaded!

WunderBlog® & News

Nearby

Air Quality

  Air Quality AQ Index Pollutant
Not available.

Snow Depth

Station Depth Elevation

Earthquake Activity

City Distance Mag. Time & Date
Minimum magnitude displayed is 2.5.

Coastal Water Temperatures

Place Temperature

Stations

Nearby Weather Stations

Station Location Temp. Windchill Dew Point Humidity Wind Precip. Elev Updated Type
                   

Watches & Warnings

There are currently no watches in effect.